Startpagina
METAR-TAF:

METAR-TAF

Vliegvelden :

Pontoise, Frankrijk

Aérodrome de Pontoise-Cormeilles-en-Vexin

breedte: 49-05-48N, lengte: 002-02-27E, hoogte: 99 m

Actueel weer

Dit bericht is 32 minuten geleden gemaakt, om 05:30 UTC
Wind 6 kt uit het zuidwesten
Temperatuur 14°C
Vochtigheid 100%
Druk 1022 hPa
Zicht 10 km of meer
Gebroken wolken op 400 ft
Gebroken wolken op 800 ft
Geheel bewolkt op 1300 ft

METAR: LFPT 240530Z AUTO 22006KT 9999 BKN004 BKN008 OVC013 14/14 Q1022

Tijdstip: 08:02 (06:02 UTC)


TAF: ontbreekt

Waarnemingen en weersverwachtingen van meer dan 4000 vliegvelden (METAR en TAF).

De beschikbare stations zijn de gele en rode punten op de kaart.

Ga met uw muis naar het station om de naam te zien.

Klik dan om waarnemingen en weersverwachtingen te zien.

kaart wijzigen: klik op de groene knoppen met een zwart kruis om in te zoomen, op de groene knop met een streepje om uit te zoomen of op de groene pijlen voor aangrenzende kaarten.


METAR-TAF: